KVTA

Details ICAO KVTA
Name NEWARK HEATH
Region United States
Timezone America/New_York (UTC-5.0)
Plans Departing 9
Arriving 4
Stats Elevation 884 ft / 269 m (AMSL)
Location 40.024661° -82.461812°
Runways 1
Magnetic Variation 7.509° W
Sunrise 2017-12-12 12:44:03 UTC / 2017-12-12 07:44:03 Local
Sunset 2017-12-12 22:06:10 UTC / 2017-12-12 17:06:10 Local
Advertisement - Login to hide

Runways

ID Width Length Bearing (true) Bearing (mag) Surface Threshold Offset Overrun Length
09 75 ft / 23 m 4,638 ft / 1,414 m 86.91° 94.42° Asphalt 457 ft / 139 m 0 ft / 0 m
27 75 ft / 23 m 4,638 ft / 1,414 m 266.92° 274.43° Asphalt 0 ft / 0 m 0 ft / 0 m

Approach Navaids

Runway Type Ident Frequency Range Bearing (true) Bearing (mag) Slope Elevation
09 Localiser IRXK 110.90 MHz 18 nm / 33 km 87.06° 94.57° - 860 ft / 262 m (AMSL)

Map

Weather


0- 5 10 15 20 25 30 35+ Temperature / ° C

Clouds and Precipitation
Forecast for 2017-12-12 12:00 UTC. Updated an hour ago

Ground ~20,000 ft ~40,000 ft Winds

METAR

KVTA 121030Z AUTO 30011KT 4SM -FZRA BR OVC009 01/M02 A2971 RMK AO2 UPB26E27FZRAB27 P0000 I1001 T00061017

TAF

Not found

Frequencies

Recorded 121.12 MHz ASOS
Clearance 124.85 MHz CLNC DEL
Unicom 122.70 MHz CTAF/UNICOM
Approach 120.20 MHz COLUMBUS APP/DEP
Warning: Do not use this data for real-world aviation or navigation. No guarantee of current accuracy is given.